Time;durP1;ratioP1;P1;durP2;ratioP2;P2;SDS_P1;SDS_P2;PMS_P1;PMS_P2;Temp;Humidity;BMP_temperature;BMP_pressure;BME280_temperature;BME280_humidity;BME280_pressure;Samples;Min_cycle;Max_cycle;Signal;HPM_P1;HPM_P2
2022/04/24 00:02:24;;;;;;;;;;;;;;;26.24;35.88;92275.88;5040869;28;9552;-61
2022/04/24 00:04:51;;;;;;;;;;;;;;;26.24;35.39;92278.63;5030059;28;8181;-60
2022/04/24 00:07:17;;;;;;;;;;;;;;;26.25;34.94;92285.63;5029259;28;7142;-61
2022/04/24 00:09:47;;;;;;;;;;;;;;;26.22;35.98;92278.47;5046182;28;9352;-60
2022/04/24 00:12:15;;;;;;;;;;;;;;;26.21;35.89;92282.53;5039476;28;7549;-60
2022/04/24 00:14:45;;;;;;;;;;;;;;;26.19;35.89;92276.88;5028458;28;9374;-61
2022/04/24 00:17:15;;;;;;;;;;;;;;;26.14;35.30;92295.81;5034722;28;7227;-60
2022/04/24 00:19:44;;;;;;;;;;;;;;;26.22;35.17;92319.81;5045481;28;7263;-61
2022/04/24 00:22:10;;;;;;;;;;;;;;;26.21;35.50;92318.38;5035636;28;9193;-61
2022/04/24 00:24:51;;;;;;;;;;;;;;;26.19;35.84;92354.72;5054465;28;7422;-61
2022/04/24 00:27:53;;;;;;;;;;;;;;;26.15;36.07;92365.41;5038253;28;8812;-61
2022/04/24 00:30:28;;;;;;;;;;;;;;;26.11;35.65;92376.84;4970261;28;6984;-61
2022/04/24 00:33:14;;;;;;;;;;;;;;;26.13;35.69;92390.06;4970824;28;9298;-60
2022/04/24 00:35:42;;;;;;;;;;;;;;;26.14;35.07;92394.28;4973836;28;9240;-61
2022/04/24 00:38:10;;;;;;;;;;;;;;;26.16;35.36;92399.97;4988549;28;8759;-61
2022/04/24 00:40:47;;;;;;;;;;;;;;;26.13;35.30;92396.31;4960840;28;7301;-61
2022/04/24 00:43:18;;;;;;;;;;;;;;;26.12;35.93;92411.34;4984492;28;7575;-60
2022/04/24 00:45:48;;;;;;;;;;;;;;;26.10;35.28;92430.47;4964449;28;9622;-60
2022/04/24 00:48:13;;;;;;;;;;;;;;;26.08;35.28;92438.56;4970754;28;7229;-61
2022/04/24 00:50:49;;;;;;;;;;;;;;;26.09;35.77;92442.81;4960248;28;7361;-60
2022/04/24 00:53:18;;;;;;;;;;;;;;;26.07;35.83;92439.09;4983856;28;6932;-60
2022/04/24 00:55:44;;;;;;;;;;;;;;;26.13;35.33;92423.84;4979907;28;7382;-60
2022/04/24 00:58:10;;;;;;;;;;;;;;;26.14;35.38;92392.25;4971931;28;7671;-60
2022/04/24 01:00:41;;;;;;;;;;;;;;;26.14;35.79;92400.50;4984607;28;7237;-60
2022/04/24 01:03:08;;;;;;;;;;;;;;;26.10;35.77;92408.44;4965280;28;9062;-60
2022/04/24 01:05:35;;;;;;;;;;;;;;;26.14;35.62;92413.56;5052906;28;6860;-60
2022/04/24 01:08:01;;;;;;;;;;;;;;;26.13;35.52;92421.09;5015747;28;8386;-60
2022/04/24 01:10:29;;;;;;;;;;;;;;;26.08;35.06;92427.56;5028503;28;8270;-60
2022/04/24 01:12:55;;;;;;;;;;;;;;;26.06;35.84;92427.34;5045309;28;8936;-60
2022/04/24 01:15:21;;;;;;;;;;;;;;;26.09;35.12;92431.03;5042862;28;9243;-60
2022/04/24 01:17:49;;;;;;;;;;;;;;;26.09;35.07;92426.28;5035173;28;7222;-60
2022/04/24 01:20:21;;;;;;;;;;;;;;;26.07;35.66;92415.06;5043774;28;7251;-59
2022/04/24 01:22:52;;;;;;;;;;;;;;;26.07;35.04;92420.56;5034072;28;9069;-60
2022/04/24 01:25:21;;;;;;;;;;;;;;;26.09;34.75;92426.28;5046920;28;8737;-59
2022/04/24 01:27:48;;;;;;;;;;;;;;;26.07;35.40;92434.34;5049252;28;7310;-59
2022/04/24 01:30:20;;;;;;;;;;;;;;;26.07;35.45;92430.84;5051194;28;7139;-60
2022/04/24 01:32:56;;;;;;;;;;;;;;;26.07;35.44;92445.34;5052186;28;7244;-60
2022/04/24 01:35:24;;;;;;;;;;;;;;;26.08;34.94;92440.56;5050056;28;7076;-60
2022/04/24 01:37:50;;;;;;;;;;;;;;;26.06;35.40;92440.38;5042198;28;8502;-59
2022/04/24 01:40:30;;;;;;;;;;;;;;;26.06;34.78;92432.88;5038011;28;7070;-60
2022/04/24 01:43:28;;;;;;;;;;;;;;;26.05;35.44;92458.97;5047901;28;7184;-60
2022/04/24 01:45:54;;;;;;;;;;;;;;;26.07;35.59;92474.94;5035106;28;8738;-60
2022/04/24 01:48:35;;;;;;;;;;;;;;;26.07;35.29;92492.19;5039583;28;8767;-59
2022/04/24 01:51:34;;;;;;;;;;;;;;;26.09;35.39;92506.16;5034945;28;7041;-59
2022/04/24 01:54:10;;;;;;;;;;;;;;;26.06;35.29;92507.25;5041596;28;7043;-60
2022/04/24 01:56:36;;;;;;;;;;;;;;;26.06;34.68;92512.03;5036465;28;7074;-60
2022/04/24 01:59:02;;;;;;;;;;;;;;;26.05;34.90;92508.56;5035021;28;7730;-60
2022/04/24 02:01:46;;;;;;;;;;;;;;;26.03;35.30;92505.59;5052567;28;7017;-59
2022/04/24 02:04:12;;;;;;;;;;;;;;;26.06;34.88;92510.00;5044042;28;8138;-59
2022/04/24 02:06:39;;;;;;;;;;;;;;;26.07;34.77;92503.22;5049517;28;7058;-59
2022/04/24 02:09:14;;;;;;;;;;;;;;;26.06;35.64;92518.28;5034077;28;7203;-59
2022/04/24 02:11:41;;;;;;;;;;;;;;;26.06;34.59;92521.03;5048708;28;7247;-60
2022/04/24 02:14:08;;;;;;;;;;;;;;;26.06;34.82;92504.50;5047797;28;9090;-60
2022/04/24 02:16:33;;;;;;;;;;;;;;;26.09;35.20;92505.44;5052678;28;9164;-59
2022/04/24 02:19:03;;;;;;;;;;;;;;;26.08;35.26;92495.66;5052028;28;7756;-59
2022/04/24 02:21:31;;;;;;;;;;;;;;;26.09;35.03;92503.41;5042339;28;7150;-60
2022/04/24 02:24:01;;;;;;;;;;;;;;;26.09;34.69;92505.44;5044375;28;7246;-60
2022/04/24 02:26:26;;;;;;;;;;;;;;;26.08;35.37;92504.69;5043447;28;7623;-59
2022/04/24 02:28:58;;;;;;;;;;;;;;;26.08;34.82;92507.44;5038801;28;7013;-59
2022/04/24 02:31:37;;;;;;;;;;;;;;;26.10;35.52;92513.13;5037793;28;7031;-59
2022/04/24 02:34:18;;;;;;;;;;;;;;;26.08;35.29;92507.44;5049012;28;7181;-60
2022/04/24 02:36:44;;;;;;;;;;;;;;;26.06;35.58;92501.75;5059123;28;9365;-60
2022/04/24 02:39:30;;;;;;;;;;;;;;;26.07;35.00;92503.22;5064322;28;7243;-60
2022/04/24 02:42:14;;;;;;;;;;;;;;;26.07;34.66;92508.72;5045436;28;7172;-59
2022/04/24 02:44:54;;;;;;;;;;;;;;;26.07;35.01;92502.47;5051151;28;7252;-59
2022/04/24 02:47:20;;;;;;;;;;;;;;;26.06;35.18;92501.75;5043807;28;9415;-59
2022/04/24 02:49:47;;;;;;;;;;;;;;;26.06;35.48;92495.50;5032955;28;7019;-59
2022/04/24 02:52:15;;;;;;;;;;;;;;;26.05;34.71;92492.03;5036466;28;7044;-60
2022/04/24 02:55:13;;;;;;;;;;;;;;;26.05;35.75;92494.78;5037784;28;7349;-59
2022/04/24 02:57:39;;;;;;;;;;;;;;;26.04;35.12;92467.78;4974042;28;7224;-59
2022/04/24 03:00:07;;;;;;;;;;;;;;;26.01;35.54;92464.09;4988530;28;7321;-59
2022/04/24 03:02:42;;;;;;;;;;;;;;;26.04;34.71;92476.03;4974132;28;9160;-60
2022/04/24 03:05:14;;;;;;;;;;;;;;;26.02;35.34;92471.09;4974689;28;7027;-60
2022/04/24 03:07:44;;;;;;;;;;;;;;;26.02;34.85;92475.88;4972063;28;7142;-60
2022/04/24 03:10:10;;;;;;;;;;;;;;;26.01;35.16;92469.63;4988317;28;7372;-59
2022/04/24 03:12:40;;;;;;;;;;;;;;;26.02;35.45;92481.38;4965674;28;7918;-59
2022/04/24 03:15:09;;;;;;;;;;;;;;;26.01;34.77;92477.88;4972227;28;7518;-60
2022/04/24 03:17:46;;;;;;;;;;;;;;;26.00;35.52;92481.94;4974334;28;8711;-59
2022/04/24 03:20:13;;;;;;;;;;;;;;;25.99;35.09;92477.72;4988511;28;8306;-60
2022/04/24 03:22:51;;;;;;;;;;;;;;;25.96;35.23;92469.84;4972588;28;9413;-59
2022/04/24 03:25:25;;;;;;;;;;;;;;;25.99;35.64;92485.25;4974755;28;7381;-59
2022/04/24 03:27:53;;;;;;;;;;;;;;;25.98;35.85;92484.53;4986924;28;9074;-59
2022/04/24 03:30:29;;;;;;;;;;;;;;;25.96;34.99;92478.09;4987398;28;9082;-59
2022/04/24 03:32:58;;;;;;;;;;;;;;;25.95;35.60;92482.13;4971711;28;8765;-59
2022/04/24 03:35:34;;;;;;;;;;;;;;;25.96;35.81;92476.09;5041450;28;9211;-59
2022/04/24 03:38:02;;;;;;;;;;;;;;;25.96;35.94;92478.09;5042737;28;9117;-59
2022/04/24 03:40:29;;;;;;;;;;;;;;;25.95;35.90;92479.38;5057188;28;9176;-59
2022/04/24 03:42:54;;;;;;;;;;;;;;;25.88;35.36;92475.38;5041476;28;9626;-59
2022/04/24 03:45:27;;;;;;;;;;;;;;;25.92;35.92;92475.00;5043302;28;8790;-59
2022/04/24 03:48:13;;;;;;;;;;;;;;;25.92;35.68;92486.03;5039415;28;7169;-59
2022/04/24 03:50:50;;;;;;;;;;;;;;;25.92;35.71;92488.78;5039840;28;7283;-60
2022/04/24 03:53:16;;;;;;;;;;;;;;;25.90;35.58;92483.81;5040781;28;9038;-59
2022/04/24 03:55:42;;;;;;;;;;;;;;;25.88;35.24;92486.38;5038520;28;9412;-59
2022/04/24 03:58:08;;;;;;;;;;;;;;;25.90;36.05;92496.88;5036108;28;7384;-59
2022/04/24 04:00:34;;;;;;;;;;;;;;;25.89;35.88;92498.88;5033101;28;7216;-59
2022/04/24 04:03:02;;;;;;;;;;;;;;;25.90;35.75;92500.34;5044694;28;7072;-60
2022/04/24 04:05:28;;;;;;;;;;;;;;;25.90;35.73;92503.09;5036790;28;9077;-60
2022/04/24 04:07:56;;;;;;;;;;;;;;;25.89;36.06;92507.16;5039554;28;8395;-60
2022/04/24 04:10:25;;;;;;;;;;;;;;;25.88;35.43;92510.47;5036216;28;8073;-60
2022/04/24 04:12:55;;;;;;;;;;;;;;;25.89;35.26;92511.91;5035736;28;9598;-60
2022/04/24 04:15:22;;;;;;;;;;;;;;;25.88;35.28;92513.94;5034189;28;7089;-60
2022/04/24 04:17:48;;;;;;;;;;;;;;;25.89;35.69;92514.69;5034593;28;9056;-60
2022/04/24 04:20:16;;;;;;;;;;;;;;;25.88;35.09;92518.72;5042484;28;9254;-60
2022/04/24 04:22:55;;;;;;;;;;;;;;;25.86;35.28;92516.53;5028638;28;7340;-60
2022/04/24 04:25:33;;;;;;;;;;;;;;;25.84;35.04;92513.59;5035571;28;9148;-60
2022/04/24 04:28:08;;;;;;;;;;;;;;;25.84;35.63;92532.88;5046919;28;8895;-60
2022/04/24 04:30:41;;;;;;;;;;;;;;;25.86;35.07;92535.09;5041470;28;9471;-60
2022/04/24 04:33:11;;;;;;;;;;;;;;;25.84;34.78;92526.63;5048754;28;9274;-60
2022/04/24 04:35:38;;;;;;;;;;;;;;;25.84;34.99;92535.63;5035114;28;8765;-60
2022/04/24 04:38:04;;;;;;;;;;;;;;;25.86;35.13;92532.34;5033892;28;7594;-60
2022/04/24 04:40:35;;;;;;;;;;;;;;;25.83;35.81;92534.16;5031909;28;9597;-60
2022/04/24 04:43:02;;;;;;;;;;;;;;;25.84;35.29;92538.38;5044935;28;9545;-61
2022/04/24 04:45:28;;;;;;;;;;;;;;;25.82;35.59;92535.44;5038624;28;8773;-60
2022/04/24 04:47:54;;;;;;;;;;;;;;;25.83;35.61;92534.16;5039779;28;7063;-60
2022/04/24 04:50:22;;;;;;;;;;;;;;;25.81;35.19;92536.75;5037563;28;7068;-60
2022/04/24 04:52:50;;;;;;;;;;;;;;;25.81;34.94;92533.25;5032738;28;7178;-60
2022/04/24 04:55:16;;;;;;;;;;;;;;;25.82;35.61;92545.72;5038657;28;9063;-60
2022/04/24 04:57:44;;;;;;;;;;;;;;;25.82;35.31;92540.94;5035959;28;7256;-60
2022/04/24 05:00:12;;;;;;;;;;;;;;;25.81;35.67;92545.00;5028947;28;7058;-60
2022/04/24 05:02:41;;;;;;;;;;;;;;;25.81;34.97;92547.78;5040149;28;8838;-60
2022/04/24 05:05:11;;;;;;;;;;;;;;;25.79;35.26;92549.59;5032483;28;7214;-60
2022/04/24 05:07:38;;;;;;;;;;;;;;;25.77;34.98;92547.41;5035372;28;7192;-60
2022/04/24 05:10:07;;;;;;;;;;;;;;;25.78;34.74;92548.88;5045996;28;7001;-61
2022/04/24 05:12:43;;;;;;;;;;;;;;;25.78;35.29;92557.13;5052698;28;6990;-60
2022/04/24 05:15:13;;;;;;;;;;;;;;;25.78;35.28;92554.38;5050346;28;9465;-60
2022/04/24 05:17:44;;;;;;;;;;;;;;;25.78;35.57;92553.63;5033277;28;7194;-60
2022/04/24 05:20:30;;;;;;;;;;;;;;;25.77;34.71;92544.66;5052892;28;9039;-60
2022/04/24 05:23:06;;;;;;;;;;;;;;;25.75;35.07;92549.97;5047166;28;9043;-60
2022/04/24 05:25:34;;;;;;;;;;;;;;;25.74;34.99;92545.03;5034080;28;7245;-60
2022/04/24 05:28:03;;;;;;;;;;;;;;;25.73;34.68;92547.03;5041850;28;7222;-61
2022/04/24 05:30:29;;;;;;;;;;;;;;;25.74;34.56;92545.75;5044315;28;7271;-60
2022/04/24 05:32:56;;;;;;;;;;;;;;;25.74;35.38;92554.03;5040347;28;7876;-60
2022/04/24 05:35:22;;;;;;;;;;;;;;;25.75;34.75;92557.53;5038754;28;9391;-60
2022/04/24 05:37:49;;;;;;;;;;;;;;;25.73;34.80;92562.84;5037779;28;6856;-61
2022/04/24 05:40:15;;;;;;;;;;;;;;;25.70;34.82;92559.19;5047473;28;9367;-61
2022/04/24 05:42:50;;;;;;;;;;;;;;;25.70;34.65;92567.44;5043763;28;6969;-60
2022/04/24 05:45:24;;;;;;;;;;;;;;;25.70;34.91;92572.94;5032057;28;7261;-60
2022/04/24 05:47:54;;;;;;;;;;;;;;;25.68;34.70;92566.53;5020829;28;8747;-60
2022/04/24 05:50:23;;;;;;;;;;;;;;;25.68;34.93;92563.78;5041246;28;9440;-61
2022/04/24 05:52:51;;;;;;;;;;;;;;;25.66;34.32;92558.09;5036910;28;7361;-60
2022/04/24 05:55:17;;;;;;;;;;;;;;;25.64;34.61;92566.91;5034631;28;9055;-60
2022/04/24 05:57:43;;;;;;;;;;;;;;;25.60;33.76;92568.56;5036774;28;7454;-60
2022/04/24 06:00:12;;;;;;;;;;;;;;;25.52;33.94;92563.06;5050405;28;7229;-60
2022/04/24 06:02:43;;;;;;;;;;;;;;;25.48;34.25;92564.72;5041748;28;6989;-60
2022/04/24 06:05:19;;;;;;;;;;;;;;;25.50;34.34;92573.16;5044208;28;7235;-60
2022/04/24 06:07:49;;;;;;;;;;;;;;;25.50;34.87;92573.16;5045750;28;7267;-60
2022/04/24 06:10:19;;;;;;;;;;;;;;;25.52;34.59;92579.59;5044223;28;7219;-60
2022/04/24 06:13:04;;;;;;;;;;;;;;;25.51;34.29;92580.88;5056496;28;7303;-60
2022/04/24 06:15:31;;;;;;;;;;;;;;;25.55;34.66;92589.50;5041654;28;8446;-60
2022/04/24 06:18:03;;;;;;;;;;;;;;;25.57;34.20;92584.19;5046537;28;7316;-60
2022/04/24 06:20:30;;;;;;;;;;;;;;;25.60;34.69;92576.84;5039688;28;7488;-60
2022/04/24 06:23:00;;;;;;;;;;;;;;;25.58;34.60;92580.13;5040402;28;7206;-60
2022/04/24 06:25:29;;;;;;;;;;;;;;;25.61;34.62;92581.03;5042095;28;8894;-60
2022/04/24 06:28:00;;;;;;;;;;;;;;;25.63;35.26;92581.22;5036568;28;7910;-61
2022/04/24 06:30:36;;;;;;;;;;;;;;;25.65;34.75;92587.63;5043831;28;7572;-61
2022/04/24 06:33:10;;;;;;;;;;;;;;;25.66;34.21;92591.88;5040474;28;7026;-61
2022/04/24 06:35:53;;;;;;;;;;;;;;;25.67;35.02;92590.56;5033832;28;7181;-61
2022/04/24 06:38:22;;;;;;;;;;;;;;;25.68;35.06;92594.81;5040826;28;8816;-59
2022/04/24 06:40:54;;;;;;;;;;;;;;;25.67;35.08;92596.06;5049977;28;7225;-59
2022/04/24 06:43:20;;;;;;;;;;;;;;;25.68;35.21;92592.03;5043105;28;8732;-59
2022/04/24 06:45:47;;;;;;;;;;;;;;;25.70;34.74;92589.47;5039786;28;7215;-59
2022/04/24 06:48:19;;;;;;;;;;;;;;;25.72;34.49;92600.66;5039336;28;7142;-60
2022/04/24 06:50:59;;;;;;;;;;;;;;;25.74;34.43;92603.59;5039915;28;7269;-60
2022/04/24 06:53:28;;;;;;;;;;;;;;;25.79;34.53;92602.66;5040724;28;7072;-59
2022/04/24 06:55:54;;;;;;;;;;;;;;;25.81;34.84;92602.84;5037281;28;7885;-60
2022/04/24 06:58:24;;;;;;;;;;;;;;;25.86;34.91;92610.16;5039732;28;7431;-60
2022/04/24 07:00:52;;;;;;;;;;;;;;;25.93;34.17;92608.66;5041138;28;9043;-60
2022/04/24 07:03:24;;;;;;;;;;;;;;;25.98;34.16;92614.00;5045917;28;7366;-60
2022/04/24 07:05:56;;;;;;;;;;;;;;;26.03;34.43;92609.56;5040169;28;7211;-60
2022/04/24 07:08:33;;;;;;;;;;;;;;;26.09;34.36;92624.66;5039939;28;7052;-61
2022/04/24 07:11:10;;;;;;;;;;;;;;;26.17;34.45;92633.59;5047572;28;7481;-60
2022/04/24 07:13:57;;;;;;;;;;;;;;;26.25;35.00;92643.88;5045127;28;9051;-60
2022/04/24 07:16:27;;;;;;;;;;;;;;;26.28;34.58;92642.75;5056739;28;7207;-61
2022/04/24 07:19:20;;;;;;;;;;;;;;;26.35;35.43;92644.75;5048504;28;7242;-60
2022/04/24 07:21:51;;;;;;;;;;;;;;;26.40;35.12;92643.81;5010242;28;6992;-60
2022/04/24 07:24:30;;;;;;;;;;;;;;;26.45;35.22;92645.63;5022545;28;8774;-60
2022/04/24 07:26:57;;;;;;;;;;;;;;;26.47;35.14;92652.03;5027017;28;9338;-60
2022/04/24 07:29:23;;;;;;;;;;;;;;;26.52;35.82;92642.84;5008593;28;6940;-60
2022/04/24 07:31:50;;;;;;;;;;;;;;;26.56;35.35;92640.44;5009222;28;9145;-60
2022/04/24 07:34:25;;;;;;;;;;;;;;;26.60;34.89;92646.28;5026559;28;8504;-60
2022/04/24 07:36:53;;;;;;;;;;;;;;;26.65;35.51;92650.13;4999560;28;7436;-60
2022/04/24 07:39:31;;;;;;;;;;;;;;;26.67;34.67;92655.81;5010386;28;7035;-60
2022/04/24 07:41:57;;;;;;;;;;;;;;;26.68;34.96;92654.53;5026523;28;7357;-60
2022/04/24 07:44:28;;;;;;;;;;;;;;;26.70;35.34;92657.47;5012522;28;9325;-60
2022/04/24 07:46:54;;;;;;;;;;;;;;;26.70;34.88;92649.19;5011316;28;7855;-60
2022/04/24 07:49:20;;;;;;;;;;;;;;;26.74;34.43;92652.31;5027699;28;7259;-61
2022/04/24 07:51:46;;;;;;;;;;;;;;;26.75;33.72;92662.06;5026571;28;7256;-60
2022/04/24 07:54:45;;;;;;;;;;;;;;;26.76;34.43;92666.28;5014474;28;9029;-60
2022/04/24 07:57:13;;;;;;;;;;;;;;;26.75;34.38;92664.84;4968512;28;9922;-61
2022/04/24 07:59:44;;;;;;;;;;;;;;;26.75;33.34;92665.53;4955567;28;8699;-61
2022/04/24 08:02:12;;;;;;;;;;;;;;;26.75;33.54;92667.59;4974120;28;9050;-61
2022/04/24 08:04:47;;;;;;;;;;;;;;;26.74;33.47;92663.34;4953915;28;7262;-62
2022/04/24 08:07:15;;;;;;;;;;;;;;;26.73;33.16;92661.91;4942892;28;7232;-61
2022/04/24 08:09:42;;;;;;;;;;;;;;;26.76;33.56;92677.31;4980388;28;9461;-61
2022/04/24 08:12:08;;;;;;;;;;;;;;;26.75;34.08;92675.88;4968824;28;8058;-61
2022/04/24 08:14:49;;;;;;;;;;;;;;;26.74;33.99;92683.41;4968924;28;7179;-60
2022/04/24 08:17:15;;;;;;;;;;;;;;;26.74;33.69;92677.13;4962864;28;8884;-60
2022/04/24 08:19:43;;;;;;;;;;;;;;;26.73;33.54;92679.16;4942869;28;9447;-60
2022/04/24 08:22:13;;;;;;;;;;;;;;;26.73;33.37;92686.72;4970311;28;6992;-61
2022/04/24 08:24:39;;;;;;;;;;;;;;;26.71;33.97;92684.47;4954546;28;9444;-60
2022/04/24 08:27:14;;;;;;;;;;;;;;;26.70;33.83;92685.78;4960622;28;7360;-60
2022/04/24 08:29:43;;;;;;;;;;;;;;;26.70;33.79;92694.06;4967186;28;7275;-60
2022/04/24 08:32:10;;;;;;;;;;;;;;;26.69;33.99;92687.06;4969552;28;7005;-60
2022/04/24 08:34:46;;;;;;;;;;;;;;;26.66;34.15;92687.47;5037017;28;9189;-60
2022/04/24 08:37:19;;;;;;;;;;;;;;;26.68;34.78;92691.13;5038528;28;9020;-60
2022/04/24 08:39:46;;;;;;;;;;;;;;;26.67;34.64;92692.41;5041406;28;7516;-61
2022/04/24 08:42:13;;;;;;;;;;;;;;;26.67;34.38;92705.47;5046696;28;6994;-61
2022/04/24 08:44:43;;;;;;;;;;;;;;;26.65;34.70;92697.00;5041102;28;9050;-61
2022/04/24 08:47:19;;;;;;;;;;;;;;;26.62;34.71;92698.84;5049794;28;7890;-61
2022/04/24 08:50:04;;;;;;;;;;;;;;;26.63;34.81;92694.81;5038470;28;8871;-61
2022/04/24 08:52:32;;;;;;;;;;;;;;;26.63;34.59;92697.56;5038191;28;9152;-59
2022/04/24 08:55:07;;;;;;;;;;;;;;;26.63;34.28;92705.09;5039403;28;7015;-59
2022/04/24 08:57:33;;;;;;;;;;;;;;;26.61;34.38;92704.94;5042367;28;9040;-61
2022/04/24 09:00:03;;;;;;;;;;;;;;;26.60;34.00;92706.94;5050505;28;9479;-61
2022/04/24 09:02:41;;;;;;;;;;;;;;;26.56;34.37;92694.84;5041184;28;9149;-61
2022/04/24 09:05:21;;;;;;;;;;;;;;;26.57;35.06;92705.31;5052847;28;8948;-61
2022/04/24 09:07:48;;;;;;;;;;;;;;;26.55;34.72;92707.16;5047308;28;7142;-61
2022/04/24 09:10:14;;;;;;;;;;;;;;;26.54;35.32;92702.94;5050085;28;7138;-60
2022/04/24 09:12:42;;;;;;;;;;;;;;;26.54;35.54;92702.94;5045833;28;9188;-60
2022/04/24 09:15:17;;;;;;;;;;;;;;;26.51;35.18;92704.78;5050336;28;6863;-61
2022/04/24 09:17:44;;;;;;;;;;;;;;;26.52;35.04;92711.78;5030758;28;9360;-61
2022/04/24 09:20:20;;;;;;;;;;;;;;;26.52;34.72;92711.78;5051516;28;8773;-61
2022/04/24 09:22:47;;;;;;;;;;;;;;;26.52;35.04;92716.53;5062735;28;9506;-61
2022/04/24 09:25:14;;;;;;;;;;;;;;;26.50;35.44;92713.63;5053477;28;8752;-61
2022/04/24 09:27:41;;;;;;;;;;;;;;;26.49;36.03;92714.91;5039990;28;6975;-59
2022/04/24 09:30:27;;;;;;;;;;;;;;;26.47;36.31;92720.97;5048674;28;9052;-59
2022/04/24 09:32:57;;;;;;;;;;;;;;;26.48;36.11;92721.72;5045694;28;9073;-58
2022/04/24 09:35:27;;;;;;;;;;;;;;;26.45;35.25;92722.81;5042144;28;7193;-59
2022/04/24 09:38:05;;;;;;;;;;;;;;;26.46;35.30;92732.56;5049385;28;7190;-58
2022/04/24 09:40:46;;;;;;;;;;;;;;;26.45;35.71;92728.31;5051080;28;8809;-60
2022/04/24 09:43:15;;;;;;;;;;;;;;;26.43;36.05;92730.91;5045560;28;7138;-61
2022/04/24 09:45:46;;;;;;;;;;;;;;;26.43;35.92;92739.91;5042731;28;9544;-61
2022/04/24 09:48:18;;;;;;;;;;;;;;;26.42;35.77;92743.25;5032172;28;7200;-60
2022/04/24 09:50:45;;;;;;;;;;;;;;;26.43;35.96;92745.44;5031350;28;8866;-61
2022/04/24 09:53:19;;;;;;;;;;;;;;;26.40;35.81;92748.56;5028755;28;9012;-60
2022/04/24 09:55:47;;;;;;;;;;;;;;;26.42;36.03;92746.00;5047450;28;7472;-61
2022/04/24 09:58:13;;;;;;;;;;;;;;;26.38;35.39;92751.88;5041662;28;7062;-61
2022/04/24 10:00:41;;;;;;;;;;;;;;;26.39;36.10;92753.34;5042317;28;9195;-60
2022/04/24 10:03:09;;;;;;;;;;;;;;;26.38;35.88;92751.88;5032259;28;7250;-61
2022/04/24 10:05:38;;;;;;;;;;;;;;;26.36;35.88;92759.97;5028826;28;7282;-61
2022/04/24 10:08:06;;;;;;;;;;;;;;;26.38;36.35;92762.19;5035682;28;7240;-61
2022/04/24 10:10:34;;;;;;;;;;;;;;;26.36;36.28;92757.19;5046854;28;7066;-61
2022/04/24 10:13:04;;;;;;;;;;;;;;;26.37;36.46;92766.22;5032298;28;8663;-61
2022/04/24 10:15:33;;;;;;;;;;;;;;;26.35;35.64;92763.28;5032967;28;9136;-61
2022/04/24 10:18:18;;;;;;;;;;;;;;;26.38;36.12;92764.94;5046752;28;9157;-60
2022/04/24 10:21:15;;;;;;;;;;;;;;;26.37;36.42;92761.44;5036680;28;7220;-60
2022/04/24 10:23:41;;;;;;;;;;;;;;;26.37;35.42;92766.22;5035970;28;7833;-60
2022/04/24 10:26:37;;;;;;;;;;;;;;;26.36;35.49;92768.22;5030027;28;9000;-60
2022/04/24 10:29:08;;;;;;;;;;;;;;;26.36;36.13;92767.50;4982174;28;8854;-60
2022/04/24 10:31:46;;;;;;;;;;;;;;;26.34;35.65;92772.84;4966979;28;7171;-60
2022/04/24 10:34:14;;;;;;;;;;;;;;;26.34;35.91;92776.31;4985569;28;7766;-60
2022/04/24 10:36:58;;;;;;;;;;;;;;;26.33;36.37;92771.38;4986021;28;7750;-60
2022/04/24 10:39:33;;;;;;;;;;;;;;;26.32;36.50;92776.13;4983894;28;7082;-60
2022/04/24 10:42:08;;;;;;;;;;;;;;;26.33;36.47;92785.16;4986485;28;8863;-61
2022/04/24 10:44:35;;;;;;;;;;;;;;;26.33;35.65;92782.41;4966086;28;7226;-60
2022/04/24 10:47:10;;;;;;;;;;;;;;;26.30;35.96;92780.72;4971566;28;9135;-60
2022/04/24 10:49:36;;;;;;;;;;;;;;;26.32;35.77;92781.66;4979427;28;9093;-60
2022/04/24 10:52:07;;;;;;;;;;;;;;;26.31;36.45;92779.47;4986948;28;9079;-60
2022/04/24 10:54:34;;;;;;;;;;;;;;;26.31;36.24;92782.22;4977431;28;6992;-60
2022/04/24 10:57:02;;;;;;;;;;;;;;;26.32;36.24;92776.13;4988963;28;7312;-60
2022/04/24 10:59:43;;;;;;;;;;;;;;;26.33;35.60;92776.88;4970104;28;8956;-60
2022/04/24 11:02:10;;;;;;;;;;;;;;;26.32;35.89;92781.66;4988999;28;7280;-61
2022/04/24 11:04:41;;;;;;;;;;;;;;;26.33;36.30;92785.88;4976711;28;7058;-60
2022/04/24 11:07:08;;;;;;;;;;;;;;;26.32;36.01;92784.41;5035897;28;6991;-60
2022/04/24 11:09:36;;;;;;;;;;;;;;;26.32;36.54;92775.44;5042008;28;7030;-59
2022/04/24 11:12:03;;;;;;;;;;;;;;;26.31;36.11;92782.97;5032247;28;9083;-60
2022/04/24 11:14:29;;;;;;;;;;;;;;;26.28;35.72;92786.81;5044435;28;7416;-61
2022/04/24 11:16:58;;;;;;;;;;;;;;;26.29;35.65;92788.28;5043626;28;7029;-61
2022/04/24 11:19:30;;;;;;;;;;;;;;;26.25;36.46;92782.41;5052800;28;9362;-61
2022/04/24 11:21:58;;;;;;;;;;;;;;;26.29;35.72;92779.28;5037601;28;9178;-60
2022/04/24 11:24:31;;;;;;;;;;;;;;;26.27;36.48;92787.38;5030828;28;7277;-60
2022/04/24 11:27:03;;;;;;;;;;;;;;;26.25;36.64;92785.19;5031417;28;9104;-61
2022/04/24 11:29:29;;;;;;;;;;;;;;;26.30;36.64;92792.50;5042586;28;8167;-60
2022/04/24 11:31:56;;;;;;;;;;;;;;;26.29;36.70;92793.06;5040791;28;7245;-60
2022/04/24 11:34:24;;;;;;;;;;;;;;;26.31;36.49;92790.47;5046877;28;7371;-60
2022/04/24 11:36:57;;;;;;;;;;;;;;;26.30;35.75;92792.50;5041251;28;7419;-60
2022/04/24 11:39:28;;;;;;;;;;;;;;;26.28;36.02;92794.34;5056569;28;8758;-61
2022/04/24 11:42:00;;;;;;;;;;;;;;;26.31;36.60;92798.75;5042907;28;9263;-60
2022/04/24 11:50:16;;;;;;;;;;;;;;;26.26;36.68;92794.16;5037149;28;8634;-60
2022/04/24 11:52:51;;;;;;;;;;;;;;;26.25;36.66;92793.44;5036729;28;9076;-60
2022/04/24 11:55:21;;;;;;;;;;;;;;;26.26;36.11;92794.91;5039846;28;7005;-60
2022/04/24 11:57:58;;;;;;;;;;;;;;;26.25;35.88;92795.47;5050132;28;7015;-60
2022/04/24 12:00:34;;;;;;;;;;;;;;;26.25;36.36;92798.22;5051901;28;9056;-61
2022/04/24 12:03:01;;;;;;;;;;;;;;;26.22;35.74;92799.31;5035770;28;7102;-61
2022/04/24 12:06:06;;;;;;;;;;;;;;;26.24;36.27;92793.97;5047091;28;7054;-61
2022/04/24 12:08:45;;;;;;;;;;;;;;;26.20;36.80;92805.38;5035880;28;7335;-61
2022/04/24 12:11:31;;;;;;;;;;;;;;;26.25;36.28;92801.72;5050180;28;7285;-61
2022/04/24 12:14:02;;;;;;;;;;;;;;;26.23;35.84;92806.31;5045931;28;7225;-60
2022/04/24 12:16:30;;;;;;;;;;;;;;;26.21;36.12;92801.31;5041645;28;6996;-60
2022/04/24 12:19:02;;;;;;;;;;;;;;;26.20;35.90;92802.63;5040053;28;9083;-60
2022/04/24 12:21:45;;;;;;;;;;;;;;;26.19;36.49;92808.69;5031135;28;7122;-61
2022/04/24 12:24:11;;;;;;;;;;;;;;;26.20;36.15;92807.41;5046128;28;9159;-60
2022/04/24 12:26:52;;;;;;;;;;;;;;;26.19;35.96;92805.94;5045548;28;7225;-60
2022/04/24 12:29:22;;;;;;;;;;;;;;;26.19;37.00;92803.19;5043109;28;6999;-60
2022/04/24 12:32:06;;;;;;;;;;;;;;;26.18;36.65;92810.72;5039817;28;9417;-60
2022/04/24 12:34:44;;;;;;;;;;;;;;;26.19;35.94;92811.47;5034867;28;7024;-60
2022/04/24 12:37:16;;;;;;;;;;;;;;;26.16;36.02;92811.25;5039099;28;7240;-61
2022/04/24 12:39:54;;;;;;;;;;;;;;;26.15;36.39;92814.56;5047339;28;7314;-60
2022/04/24 12:42:24;;;;;;;;;;;;;;;26.14;36.03;92813.09;5030904;28;7235;-60
2022/04/24 12:45:01;;;;;;;;;;;;;;;26.16;35.96;92814.00;5040439;28;7360;-60
2022/04/24 12:47:31;;;;;;;;;;;;;;;26.17;36.60;92815.50;5046189;28;9184;-61
2022/04/24 12:50:04;;;;;;;;;;;;;;;26.16;36.69;92821.56;5029103;28;8777;-61
2022/04/24 12:52:30;;;;;;;;;;;;;;;26.13;36.73;92820.63;5044860;28;9171;-60
2022/04/24 12:55:00;;;;;;;;;;;;;;;26.13;36.00;92826.16;5050362;28;6942;-60
2022/04/24 12:57:28;;;;;;;;;;;;;;;26.12;36.05;92816.41;5028975;28;8967;-60
2022/04/24 12:59:57;;;;;;;;;;;;;;;26.12;36.51;92824.66;5031105;28;7214;-60
2022/04/24 13:02:25;;;;;;;;;;;;;;;26.13;36.58;92823.38;5038081;28;8159;-60
2022/04/24 13:04:59;;;;;;;;;;;;;;;26.14;35.94;92824.84;5033818;28;7192;-61
2022/04/24 13:07:30;;;;;;;;;;;;;;;26.17;35.98;92821.00;5056603;28;6997;-60
2022/04/24 13:09:58;;;;;;;;;;;;;;;26.19;36.05;92817.69;5047053;28;9337;-60
2022/04/24 13:12:32;;;;;;;;;;;;;;;26.16;35.91;92816.75;5031177;28;6972;-60
2022/04/24 13:14:58;;;;;;;;;;;;;;;26.14;35.94;92822.09;5048787;28;9104;-60
2022/04/24 13:20:20;;;;;;;;;;;;;;;26.14;36.18;92819.34;5030936;28;7122;-60
2022/04/24 13:22:57;;;;;;;;;;;;;;;26.15;36.49;92817.31;5041061;28;7044;-61
2022/04/24 13:25:25;;;;;;;;;;;;;;;26.12;36.57;92821.19;5036111;28;9071;-61
2022/04/24 13:27:54;;;;;;;;;;;;;;;26.11;36.34;92817.69;5058853;28;7034;-61
2022/04/24 13:30:22;;;;;;;;;;;;;;;26.09;36.36;92806.50;5044567;28;7288;-61